Time;durP1;ratioP1;P1;durP2;ratioP2;P2;SDS_P1;SDS_P2;PMS_P1;PMS_P2;Temp;Humidity;BMP_temperature;BMP_pressure;BME280_temperature;BME280_humidity;BME280_pressure;Samples;Min_cycle;Max_cycle;Signal;HPM_P1;HPM_P2
2021/08/15 00:00:24;;;;;;;13.45;9.88;;;19.10;99.90;;;;;;6185608;23;20021;-79
2021/08/15 00:02:51;;;;;;;11.18;7.75;;;19.00;99.90;;;;;;6165977;23;20009;-79
2021/08/15 00:05:19;;;;;;;14.88;9.98;;;19.00;99.90;;;;;;6155536;23;20037;-79
2021/08/15 00:07:47;;;;;;;12.38;9.18;;;19.10;99.90;;;;;;6187746;23;20021;-79
2021/08/15 00:10:16;;;;;;;21.98;10.90;;;19.10;99.90;;;;;;6154745;23;20028;-79
2021/08/15 00:12:44;;;;;;;11.23;7.47;;;19.10;99.90;;;;;;6157623;23;20640;-79
2021/08/15 00:15:14;;;;;;;12.80;7.78;;;19.10;99.90;;;;;;6154838;23;20021;-79
2021/08/15 00:17:42;;;;;;;13.07;10.60;;;19.00;99.90;;;;;;6154790;23;20344;-79
2021/08/15 00:20:11;;;;;;;13.75;7.85;;;18.90;99.90;;;;;;6185713;23;20025;-79
2021/08/15 00:22:40;;;;;;;9.98;8.57;;;18.80;99.90;;;;;;6164648;23;20017;-78
2021/08/15 00:25:11;;;;;;;11.27;8.00;;;18.90;99.90;;;;;;6182224;23;20021;-78
2021/08/15 00:27:39;;;;;;;23.35;9.55;;;18.90;99.90;;;;;;6188071;23;20590;-79
2021/08/15 00:30:10;;;;;;;16.08;11.05;;;18.90;99.90;;;;;;6191909;23;20013;-79
2021/08/15 00:32:44;;;;;;;10.32;9.05;;;18.90;99.90;;;;;;6152459;23;20048;-79
2021/08/15 00:35:12;;;;;;;11.80;9.82;;;19.00;99.90;;;;;;6189558;23;20024;-79
2021/08/15 00:37:40;;;;;;;13.65;9.52;;;18.90;99.90;;;;;;6191267;23;20016;-79
2021/08/15 00:40:11;;;;;;;14.20;10.07;;;19.00;99.90;;;;;;6153569;23;20025;-79
2021/08/15 00:42:39;;;;;;;14.05;9.38;;;19.00;99.90;;;;;;6191259;23;20017;-79
2021/08/15 00:45:08;;;;;;;16.52;12.02;;;19.00;99.90;;;;;;6182679;23;20021;-79
2021/08/15 00:47:35;;;;;;;21.95;10.63;;;19.00;99.90;;;;;;6153288;23;20017;-79
2021/08/15 00:50:05;;;;;;;15.68;8.38;;;18.90;99.90;;;;;;6192038;23;20320;-79
2021/08/15 00:52:32;;;;;;;9.75;8.77;;;18.90;99.90;;;;;;6129002;23;20024;-79
2021/08/15 00:55:11;;;;;;;17.10;11.02;;;18.80;99.90;;;;;;6190992;23;20013;-78
2021/08/15 00:57:44;;;;;;;15.45;9.93;;;18.80;99.90;;;;;;6187300;23;20021;-78
2021/08/15 01:00:13;;;;;;;14.88;8.32;;;18.80;99.90;;;;;;6185749;23;20036;-79
2021/08/15 01:02:44;;;;;;;11.02;9.82;;;18.80;99.90;;;;;;6191409;23;20017;-79
2021/08/15 01:05:12;;;;;;;16.00;11.23;;;18.80;99.90;;;;;;6155196;23;20029;-79
2021/08/15 01:07:41;;;;;;;11.95;9.35;;;18.70;99.90;;;;;;6187984;23;20075;-79
2021/08/15 01:10:11;;;;;;;20.27;10.05;;;18.70;99.90;;;;;;6190797;23;20012;-79
2021/08/15 01:12:40;;;;;;;18.17;11.57;;;18.60;99.90;;;;;;6157058;23;20021;-79
2021/08/15 01:15:09;;;;;;;18.98;12.07;;;18.70;99.90;;;;;;6163939;23;20024;-79
2021/08/15 01:17:42;;;;;;;13.43;10.85;;;18.70;99.90;;;;;;6191363;23;20013;-78
2021/08/15 01:20:15;;;;;;;13.88;10.15;;;18.70;99.90;;;;;;6128922;23;20021;-79
2021/08/15 01:22:45;;;;;;;14.25;10.13;;;18.70;99.90;;;;;;6164784;23;20013;-79
2021/08/15 01:25:14;;;;;;;16.73;9.50;;;18.60;99.90;;;;;;6181245;23;20025;-79
2021/08/15 01:27:43;;;;;;;25.08;11.60;;;18.60;99.90;;;;;;6187672;23;20486;-79
2021/08/15 01:30:14;;;;;;;13.18;11.10;;;18.60;99.90;;;;;;6191546;23;20016;-79
2021/08/15 01:32:43;;;;;;;14.05;9.60;;;18.70;99.90;;;;;;6153481;23;20027;-79
2021/08/15 01:35:12;;;;;;;17.73;11.18;;;18.70;99.90;;;;;;6190002;23;20020;-79
2021/08/15 01:37:39;;;;;;;17.15;9.07;;;18.50;99.90;;;;;;6191011;23;20040;-79
2021/08/15 01:40:08;;;;;;;20.30;13.35;;;18.50;99.90;;;;;;6186235;23;20483;-79
2021/08/15 01:42:36;;;;;;;12.77;9.02;;;18.50;99.90;;;;;;6191217;23;20020;-78
2021/08/15 01:45:12;;;;;;;21.60;11.90;;;18.40;99.90;;;;;;6182687;23;20032;-79
2021/08/15 01:47:39;;;;;;;18.83;9.60;;;18.50;99.90;;;;;;6187968;23;20026;-79
2021/08/15 01:50:08;;;;;;;16.55;9.38;;;18.50;99.90;;;;;;6190554;23;20017;-79
2021/08/15 01:52:36;;;;;;;17.60;10.13;;;18.50;99.90;;;;;;6183804;23;20025;-79
2021/08/15 01:55:06;;;;;;;13.60;11.25;;;18.50;99.90;;;;;;6153007;23;20017;-79
2021/08/15 01:57:34;;;;;;;15.10;10.13;;;18.50;99.90;;;;;;6187252;23;20432;-79
2021/08/15 02:00:04;;;;;;;16.30;10.98;;;18.40;99.90;;;;;;6186128;23;20256;-79
2021/08/15 02:02:41;;;;;;;21.25;10.60;;;18.50;99.90;;;;;;6190786;23;20013;-79
2021/08/15 02:05:18;;;;;;;16.58;10.05;;;18.50;99.90;;;;;;6181782;23;20025;-79
2021/08/15 02:07:54;;;;;;;18.00;11.52;;;18.60;99.90;;;;;;6130864;23;20053;-79
2021/08/15 02:10:25;;;;;;;11.07;9.98;;;18.70;99.90;;;;;;6191038;23;20010;-79
2021/08/15 02:12:54;;;;;;;16.33;9.85;;;18.70;99.90;;;;;;6182388;23;20028;-79
2021/08/15 02:15:21;;;;;;;11.52;9.23;;;18.80;99.90;;;;;;6189004;23;20035;-83
2021/08/15 02:17:49;;;;;;;14.48;9.07;;;18.80;99.90;;;;;;6130307;23;20021;-82
2021/08/15 02:20:19;;;;;;;11.27;9.80;;;18.80;99.90;;;;;;6151809;23;20025;-78
2021/08/15 02:22:47;;;;;;;12.88;10.80;;;18.80;99.90;;;;;;6129673;23;20021;-78
2021/08/15 02:25:18;;;;;;;11.07;9.82;;;18.80;99.90;;;;;;6154383;23;20025;-78
2021/08/15 02:27:47;;;;;;;12.98;9.57;;;18.80;99.90;;;;;;6162186;23;20028;-78
2021/08/15 02:30:18;;;;;;;13.70;10.23;;;18.80;99.90;;;;;;6166703;23;20389;-78
2021/08/15 02:32:46;;;;;;;12.45;9.82;;;18.70;99.90;;;;;;6184837;23;20140;-78
2021/08/15 02:35:14;;;;;;;17.67;10.02;;;18.70;99.90;;;;;;6130317;23;20017;-78
2021/08/15 02:37:44;;;;;;;14.93;11.63;;;18.70;99.90;;;;;;6166609;23;20028;-78
2021/08/15 02:40:14;;;;;;;16.07;10.93;;;18.70;99.90;;;;;;6160749;23;20033;-78
2021/08/15 02:42:44;;;;;;;12.23;8.90;;;18.70;99.90;;;;;;6192438;23;20013;-78
2021/08/15 02:45:15;;;;;;;16.58;9.80;;;18.70;99.90;;;;;;6181387;23;20036;-78
2021/08/15 02:47:44;;;;;;;12.55;9.75;;;18.70;99.90;;;;;;6162993;23;20021;-78
2021/08/15 02:50:13;;;;;;;11.55;9.98;;;18.70;99.90;;;;;;6192136;23;20017;-77
2021/08/15 02:52:43;;;;;;;19.98;11.95;;;18.70;99.90;;;;;;6153772;23;20048;-78
2021/08/15 02:55:14;;;;;;;10.90;8.93;;;18.70;99.90;;;;;;6165510;23;20021;-78
2021/08/15 02:57:42;;;;;;;12.45;9.30;;;18.70;99.90;;;;;;6188591;23;20021;-78
2021/08/15 03:00:11;;;;;;;22.13;11.10;;;18.70;99.90;;;;;;6187154;23;20021;-78
2021/08/15 03:02:40;;;;;;;14.88;9.93;;;18.70;99.90;;;;;;6192490;23;20028;-78
2021/08/15 03:05:10;;;;;;;15.57;10.35;;;18.70;99.90;;;;;;6130819;23;20039;-78
2021/08/15 03:07:38;;;;;;;20.48;10.77;;;18.80;99.90;;;;;;6189059;23;20021;-78
2021/08/15 03:10:08;;;;;;;15.73;8.48;;;18.90;99.90;;;;;;6166213;23;20009;-78
2021/08/15 03:12:36;;;;;;;10.85;8.52;;;18.90;99.90;;;;;;6158749;23;20039;-78
2021/08/15 03:15:05;;;;;;;17.88;8.50;;;19.00;99.90;;;;;;6191676;23;20013;-78
2021/08/15 03:17:33;;;;;;;20.05;10.40;;;19.00;99.90;;;;;;6192225;23;20017;-78
2021/08/15 03:20:01;;;;;;;17.63;8.30;;;19.00;99.90;;;;;;6187361;23;20029;-78
2021/08/15 03:22:29;;;;;;;15.63;9.63;;;19.10;99.90;;;;;;6191782;23;20044;-78
2021/08/15 03:24:59;;;;;;;20.10;8.05;;;19.10;99.90;;;;;;6183489;23;20410;-78
2021/08/15 03:27:26;;;;;;;17.38;10.20;;;19.10;99.90;;;;;;6187606;23;20745;-77
2021/08/15 03:29:54;;;;;;;15.45;9.57;;;19.00;99.90;;;;;;6192069;23;20024;-78
2021/08/15 03:32:22;;;;;;;14.57;8.13;;;19.00;99.90;;;;;;6185639;23;20040;-78
2021/08/15 03:34:49;;;;;;;19.65;11.05;;;18.90;99.90;;;;;;6192524;23;20017;-77
2021/08/15 03:37:18;;;;;;;30.48;9.55;;;18.90;99.90;;;;;;6181336;23;20040;-78
2021/08/15 03:39:45;;;;;;;12.02;10.02;;;18.90;99.90;;;;;;6162233;23;20024;-78
2021/08/15 03:42:13;;;;;;;13.23;7.82;;;18.90;99.90;;;;;;6130182;23;20024;-78
2021/08/15 03:44:41;;;;;;;17.75;9.15;;;18.80;99.90;;;;;;6154829;23;20036;-78
2021/08/15 03:47:08;;;;;;;9.75;8.75;;;18.70;99.90;;;;;;6140058;23;20020;-78
2021/08/15 03:49:36;;;;;;;17.55;8.52;;;18.60;99.90;;;;;;6166381;23;20040;-78
2021/08/15 03:52:04;;;;;;;17.42;9.13;;;18.40;99.90;;;;;;6128841;23;20036;-78
2021/08/15 03:54:32;;;;;;;13.20;7.53;;;18.20;99.90;;;;;;6130332;23;20452;-78
2021/08/15 03:56:59;;;;;;;11.07;7.70;;;17.90;99.90;;;;;;6128983;23;20452;-78
2021/08/15 03:59:27;;;;;;;12.57;9.52;;;17.80;99.90;;;;;;6187859;23;20024;-78
2021/08/15 04:01:55;;;;;;;13.98;9.68;;;17.80;99.90;;;;;;6163446;23;20459;-78
2021/08/15 04:04:23;;;;;;;13.23;9.30;;;17.90;99.90;;;;;;6185790;23;20040;-78
2021/08/15 04:06:50;;;;;;;13.25;8.43;;;17.90;99.90;;;;;;6191930;23;20333;-78
2021/08/15 04:09:18;;;;;;;12.63;8.95;;;18.00;99.90;;;;;;6155818;23;20021;-78
2021/08/15 04:11:46;;;;;;;18.85;10.90;;;18.10;99.90;;;;;;6130117;23;20475;-78
2021/08/15 04:14:14;;;;;;;9.95;8.93;;;18.10;99.90;;;;;;6155102;23;20462;-78
2021/08/15 04:16:42;;;;;;;11.32;7.43;;;18.10;99.90;;;;;;6158287;23;20028;-78
2021/08/15 04:19:09;;;;;;;13.40;8.23;;;17.90;99.90;;;;;;6130139;23;20028;-78
2021/08/15 04:21:37;;;;;;;13.48;9.80;;;17.90;99.90;;;;;;6191326;23;20013;-78
2021/08/15 04:24:05;;;;;;;12.27;8.88;;;17.90;99.90;;;;;;6186236;23;20026;-78
2021/08/15 04:26:32;;;;;;;13.65;8.88;;;18.00;99.90;;;;;;6165750;23;20020;-78
2021/08/15 04:29:00;;;;;;;15.32;8.20;;;18.00;99.90;;;;;;6182452;23;20036;-78
2021/08/15 04:31:28;;;;;;;14.48;9.63;;;18.00;99.90;;;;;;6189259;23;20021;-78
2021/08/15 04:33:55;;;;;;;14.15;10.68;;;18.10;99.90;;;;;;6154716;23;20016;-78
2021/08/15 04:36:23;;;;;;;12.45;8.82;;;18.20;99.90;;;;;;6158931;23;20028;-78
2021/08/15 04:38:51;;;;;;;12.50;9.52;;;18.30;99.90;;;;;;6165318;23;20440;-78
2021/08/15 04:41:18;;;;;;;23.48;10.50;;;18.50;99.90;;;;;;6154687;23;20397;-78
2021/08/15 04:43:50;;;;;;;11.02;8.65;;;18.60;99.90;;;;;;6187611;23;20024;-78
2021/08/15 04:46:23;;;;;;;25.70;12.05;;;18.60;99.90;;;;;;6181510;23;20017;-78
2021/08/15 04:48:51;;;;;;;11.35;9.88;;;18.70;99.90;;;;;;6154226;23;20032;-78
2021/08/15 04:51:19;;;;;;;13.57;10.65;;;18.80;99.90;;;;;;6153451;23;20044;-78
2021/08/15 04:53:46;;;;;;;24.27;10.73;;;18.80;99.90;;;;;;6191494;23;20013;-78
2021/08/15 04:56:14;;;;;;;14.70;9.15;;;18.80;99.90;;;;;;6186131;23;20025;-78
2021/08/15 04:58:42;;;;;;;20.83;10.25;;;18.90;99.90;;;;;;6183422;23;20029;-78
2021/08/15 05:01:09;;;;;;;12.15;9.18;;;18.90;99.90;;;;;;6154429;23;20021;-78
2021/08/15 05:03:37;;;;;;;16.73;8.90;;;19.00;99.90;;;;;;6188441;23;20322;-78
2021/08/15 05:06:05;;;;;;;20.65;10.77;;;19.10;99.90;;;;;;6191044;23;20021;-78
2021/08/15 05:08:33;;;;;;;11.05;7.57;;;19.10;99.90;;;;;;6158256;23;20032;-78
2021/08/15 05:11:00;;;;;;;13.50;9.27;;;19.20;99.90;;;;;;6154204;23;20021;-80
2021/08/15 05:13:29;;;;;;;13.57;9.00;;;19.30;99.90;;;;;;6153666;23;20017;-78
2021/08/15 05:15:58;;;;;;;17.42;10.05;;;19.30;99.90;;;;;;6153539;23;20464;-78
2021/08/15 05:18:29;;;;;;;15.77;9.27;;;19.40;99.90;;;;;;6154834;23;20069;-78
2021/08/15 05:20:57;;;;;;;11.05;8.90;;;19.60;99.90;;;;;;6155985;23;20032;-81
2021/08/15 05:23:25;;;;;;;20.80;10.60;;;19.70;99.90;;;;;;6162419;23;20017;-82
2021/08/15 05:25:52;;;;;;;13.45;8.90;;;19.80;99.90;;;;;;6140614;23;20340;-82
2021/08/15 05:28:20;;;;;;;18.15;11.10;;;20.00;99.90;;;;;;6184911;23;20036;-82
2021/08/15 05:30:48;;;;;;;14.18;8.13;;;20.10;99.90;;;;;;6165049;23;20021;-80
2021/08/15 05:33:15;;;;;;;9.95;7.47;;;20.20;99.90;;;;;;6181636;23;20336;-79
2021/08/15 05:35:43;;;;;;;12.13;9.30;;;20.30;99.90;;;;;;6187401;23;20021;-79
2021/08/15 05:38:11;;;;;;;10.63;9.55;;;20.40;99.90;;;;;;6191496;23;20020;-79
2021/08/15 05:40:38;;;;;;;23.75;9.07;;;20.50;99.90;;;;;;6183848;23;20032;-79
2021/08/15 05:43:06;;;;;;;17.63;9.00;;;20.70;99.90;;;;;;6153585;23;20017;-79
2021/08/15 05:45:34;;;;;;;15.93;9.93;;;20.90;99.90;;;;;;6153937;23;20021;-80
2021/08/15 05:48:03;;;;;;;15.95;10.43;;;21.00;99.90;;;;;;6129439;23;20038;-79
2021/08/15 05:50:31;;;;;;;28.40;8.68;;;21.10;99.90;;;;;;6139988;23;20017;-79
2021/08/15 05:52:58;;;;;;;12.57;9.70;;;21.20;99.90;;;;;;6154615;23;20032;-79
2021/08/15 05:55:26;;;;;;;14.95;8.13;;;21.20;99.90;;;;;;6162477;23;20021;-79
2021/08/15 05:57:54;;;;;;;9.68;8.25;;;21.30;99.90;;;;;;6142035;23;20029;-79
2021/08/15 06:00:22;;;;;;;12.70;8.90;;;21.40;99.90;;;;;;6150651;23;20033;-79
2021/08/15 06:02:49;;;;;;;11.32;9.80;;;21.40;99.90;;;;;;6097166;23;20029;-79
2021/08/15 06:05:18;;;;;;;12.52;9.70;;;21.50;99.90;;;;;;6146508;23;20026;-79
2021/08/15 06:07:46;;;;;;;19.25;9.20;;;21.50;99.90;;;;;;6121126;23;20029;-79
2021/08/15 06:10:14;;;;;;;18.77;9.88;;;21.60;99.90;;;;;;6131978;23;20025;-80
2021/08/15 06:12:42;;;;;;;16.15;10.00;;;21.60;99.90;;;;;;6121120;23;20023;-79
2021/08/15 06:15:14;;;;;;;14.82;9.30;;;21.80;99.90;;;;;;6155673;23;20330;-79
2021/08/15 06:17:43;;;;;;;17.00;10.98;;;21.90;99.90;;;;;;6122623;23;20022;-79
2021/08/15 06:20:13;;;;;;;10.50;9.43;;;21.90;99.90;;;;;;6096907;23;20026;-79
2021/08/15 06:22:42;;;;;;;15.65;9.20;;;22.10;99.90;;;;;;6131874;23;20333;-79
2021/08/15 06:25:12;;;;;;;14.73;10.90;;;22.20;99.90;;;;;;6074742;23;20036;-79
2021/08/15 06:27:46;;;;;;;16.52;9.32;;;22.30;99.90;;;;;;6073140;23;20065;-80
2021/08/15 06:30:15;;;;;;;12.70;8.75;;;22.50;99.90;;;;;;6121672;23;20398;-80
2021/08/15 06:32:54;;;;;;;14.75;8.80;;;22.80;99.90;;;;;;6097072;23;20026;-79
2021/08/15 06:35:25;;;;;;;15.50;9.02;;;22.90;99.90;;;;;;6129465;23;20029;-80
2021/08/15 06:37:55;;;;;;;11.20;8.85;;;23.10;99.90;;;;;;6133438;23;20025;-79
2021/08/15 06:40:28;;;;;;;15.13;7.20;;;23.20;99.90;;;;;;6127266;23;20221;-80
2021/08/15 06:43:07;;;;;;;9.43;8.30;;;23.20;99.90;;;;;;6132632;23;20345;-80
2021/08/15 06:45:37;;;;;;;10.68;6.97;;;23.10;99.90;;;;;;6121109;23;20028;-80
2021/08/15 06:48:06;;;;;;;10.80;7.93;;;22.90;99.90;;;;;;6119927;23;20754;-80
2021/08/15 06:50:37;;;;;;;9.80;7.78;;;22.70;99.90;;;;;;6132823;23;20021;-80
2021/08/15 06:53:12;;;;;;;21.02;7.80;;;22.70;99.90;;;;;;6121397;23;20057;-80
2021/08/15 06:55:41;;;;;;;18.02;9.80;;;22.70;99.90;;;;;;6120204;23;20033;-79
2021/08/15 06:58:09;;;;;;;11.90;8.77;;;22.80;99.90;;;;;;6159882;23;20060;-79
2021/08/15 07:00:36;;;;;;;19.48;10.55;;;22.80;99.90;;;;;;6158474;23;20027;-80
2021/08/15 07:03:04;;;;;;;17.95;8.43;;;22.80;99.90;;;;;;6191390;23;20013;-80
2021/08/15 07:05:34;;;;;;;10.93;8.23;;;22.90;99.90;;;;;;6130930;23;20027;-80
2021/08/15 07:08:01;;;;;;;17.05;8.95;;;22.90;99.90;;;;;;6187337;23;20326;-80
2021/08/15 07:10:29;;;;;;;14.05;10.00;;;23.00;99.90;;;;;;6165886;23;20024;-79
2021/08/15 07:12:58;;;;;;;15.20;8.70;;;23.00;99.90;;;;;;6153546;23;20033;-80
2021/08/15 07:15:28;;;;;;;27.52;11.00;;;23.20;99.90;;;;;;6163997;23;20341;-79
2021/08/15 07:17:57;;;;;;;17.67;8.82;;;23.60;99.90;;;;;;6192457;23;20017;-79
2021/08/15 07:20:26;;;;;;;19.95;9.65;;;23.70;99.90;;;;;;6185875;23;20344;-80
2021/08/15 07:22:55;;;;;;;13.82;9.40;;;23.50;99.90;;;;;;6191498;23;20020;-79
2021/08/15 07:25:28;;;;;;;20.25;10.13;;;23.40;99.90;;;;;;6155052;23;20025;-80
2021/08/15 07:27:57;;;;;;;14.60;9.75;;;23.40;99.90;;;;;;6187172;23;20337;-80
2021/08/15 07:30:25;;;;;;;13.77;12.40;;;23.40;99.90;;;;;;6131404;23;20056;-80
2021/08/15 07:32:58;;;;;;;17.90;10.65;;;23.40;99.90;;;;;;6154700;23;20021;-81
2021/08/15 07:35:27;;;;;;;14.65;10.75;;;23.40;99.90;;;;;;6190170;23;20017;-81
2021/08/15 07:37:56;;;;;;;11.75;10.45;;;23.50;99.90;;;;;;6185787;23;20020;-80
2021/08/15 07:40:26;;;;;;;14.00;9.20;;;23.70;99.90;;;;;;6131597;23;20025;-81
2021/08/15 07:42:55;;;;;;;12.68;9.10;;;23.70;99.90;;;;;;6191872;23;20020;-81
2021/08/15 07:45:26;;;;;;;17.17;10.85;;;23.70;99.90;;;;;;6181510;23;20029;-81
2021/08/15 07:47:55;;;;;;;14.75;9.02;;;23.80;99.90;;;;;;6186093;23;20478;-81
2021/08/15 07:50:25;;;;;;;11.63;8.93;;;23.90;99.90;;;;;;6165369;23;20072;-81
2021/08/15 07:52:53;;;;;;;15.40;10.93;;;23.90;99.90;;;;;;6157070;23;20017;-81
2021/08/15 07:55:22;;;;;;;13.93;9.27;;;24.00;99.90;;;;;;6106129;23;20017;-81
2021/08/15 07:57:49;;;;;;;23.67;10.10;;;24.10;99.90;;;;;;6161183;23;20017;-81
2021/08/15 08:00:17;;;;;;;19.85;9.10;;;24.10;99.90;;;;;;6159304;23;20452;-80
2021/08/15 08:02:45;;;;;;;13.48;10.63;;;24.20;99.90;;;;;;6191990;23;20020;-80
2021/08/15 08:05:13;;;;;;;28.27;10.48;;;24.20;99.90;;;;;;6155666;23;20036;-80
2021/08/15 08:07:41;;;;;;;16.20;9.73;;;24.40;99.90;;;;;;6188435;23;20024;-81
2021/08/15 08:10:11;;;;;;;19.95;9.25;;;24.40;99.90;;;;;;6190239;23;20024;-80
2021/08/15 08:12:45;;;;;;;11.13;8.60;;;24.30;99.90;;;;;;6106939;23;20028;-81
2021/08/15 08:15:18;;;;;;;18.25;11.88;;;24.40;99.90;;;;;;6190214;23;20329;-80
2021/08/15 08:17:46;;;;;;;12.27;9.35;;;24.50;99.90;;;;;;6191551;23;20692;-80
2021/08/15 08:20:16;;;;;;;14.10;10.70;;;24.50;99.90;;;;;;6186238;23;20760;-81
2021/08/15 08:22:45;;;;;;;16.98;10.30;;;24.50;99.90;;;;;;6191321;23;20021;-80
2021/08/15 08:25:12;;;;;;;22.00;12.23;;;24.50;99.90;;;;;;6154220;23;20025;-81
2021/08/15 08:27:56;;;;;;;14.93;11.32;;;24.70;99.90;;;;;;6153722;23;20453;-84
2021/08/15 08:30:31;;;;;;;16.95;8.85;;;24.70;99.90;;;;;;6153374;23;20020;-83
2021/08/15 08:33:08;;;;;;;13.10;9.68;;;24.80;99.90;;;;;;6154030;23;20044;-84
2021/08/15 08:35:48;;;;;;;13.18;9.85;;;25.00;99.90;;;;;;6158655;23;20021;-85
2021/08/15 08:38:16;;;;;;;;;;;24.90;99.90;;;;;;6165889;23;20009;-84
2021/08/15 08:41:03;;;;;;;10.90;9.65;;;25.20;99.90;;;;;;6130324;23;19923;-84
2021/08/15 08:43:36;;;;;;;14.68;9.50;;;25.20;99.90;;;;;;6131501;23;20016;-84
2021/08/15 08:46:05;;;;;;;13.02;9.77;;;25.30;99.90;;;;;;6166288;23;20017;-83
2021/08/15 08:48:33;;;;;;;13.70;9.30;;;25.50;99.90;;;;;;6184895;23;20021;-83
2021/08/15 08:51:06;;;;;;;13.25;8.75;;;25.70;99.90;;;;;;6164917;23;20494;-82
2021/08/15 08:53:35;;;;;;;16.92;9.27;;;25.80;99.90;;;;;;6165174;23;20017;-82
2021/08/15 08:56:03;;;;;;;12.32;9.05;;;25.90;99.90;;;;;;6129262;23;20025;-83
2021/08/15 08:58:31;;;;;;;22.70;10.52;;;25.90;99.90;;;;;;6129422;23;20032;-82
2021/08/15 09:00:59;;;;;;;16.70;10.77;;;25.80;99.90;;;;;;6152389;23;20028;-83
2021/08/15 09:03:29;;;;;;;12.52;9.98;;;25.80;99.90;;;;;;6152630;23;20019;-83
2021/08/15 09:06:32;;;;;;;11.93;9.55;;;25.90;99.90;;;;;;6105756;23;20705;-86
2021/08/15 09:09:21;;;;;;;13.20;8.45;;;26.10;99.90;;;;;;6181654;23;20032;-82
2021/08/15 09:11:50;;;;;;;21.02;9.00;;;26.20;99.90;;;;;;6124453;23;20025;-82
2021/08/15 09:14:22;;;;;;;17.70;9.60;;;26.00;99.90;;;;;;6188429;23;20017;-81
2021/08/15 09:16:55;;;;;;;21.35;12.68;;;26.00;99.90;;;;;;6181640;23;20032;-83
2021/08/15 09:19:29;;;;;;;15.75;9.50;;;26.10;99.90;;;;;;6147425;23;20029;-81
2021/08/15 09:22:10;;;;;;;11.70;10.55;;;26.10;99.90;;;;;;6189712;23;20352;-82
2021/08/15 09:25:02;;;;;;;14.93;9.32;;;26.10;99.90;;;;;;6157789;23;20020;-82
2021/08/15 09:27:50;;;;;;;12.23;9.40;;;26.00;99.90;;;;;;6153568;23;20029;-80
2021/08/15 09:30:32;;;;;;;11.73;9.40;;;26.10;99.90;;;;;;6131228;23;20009;-81
2021/08/15 09:33:02;;;;;;;19.75;10.68;;;26.20;99.90;;;;;;6182610;23;20032;-81
2021/08/15 09:36:31;;;;;;;13.27;11.52;;;26.30;99.90;;;;;;6085512;23;20021;-81
2021/08/15 09:40:35;;;;;;;11.98;8.70;;;26.20;99.90;;;;;;6128202;23;20021;-81
2021/08/15 09:43:34;;;;;;;15.63;9.77;;;26.20;99.90;;;;;;6125538;23;20079;-84
2021/08/15 09:46:03;;;;;;;12.05;9.52;;;26.20;99.90;;;;;;6097978;23;20025;-80
2021/08/15 09:48:39;;;;;;;10.05;7.95;;;26.40;99.90;;;;;;6099026;23;20025;-79
2021/08/15 09:51:11;;;;;;;17.65;9.38;;;26.50;99.90;;;;;;6104508;23;20021;-81
2021/08/15 09:53:46;;;;;;;21.90;9.00;;;26.50;99.90;;;;;;6121069;23;20025;-80
2021/08/15 09:56:14;;;;;;;16.00;8.52;;;26.50;99.90;;;;;;6125067;23;20026;-80
2021/08/15 09:58:42;;;;;;;19.35;9.13;;;26.50;99.90;;;;;;6122380;23;20033;-79
2021/08/15 10:01:10;;;;;;;10.75;8.25;;;26.50;99.90;;;;;;6097300;23;20848;-80
2021/08/15 10:03:41;;;;;;;14.15;9.73;;;26.60;99.90;;;;;;6123882;23;20350;-80
2021/08/15 10:06:14;;;;;;;17.55;8.10;;;26.60;99.90;;;;;;6123638;23;20025;-86
2021/08/15 10:08:47;;;;;;;16.33;8.65;;;26.60;99.90;;;;;;6058450;23;20454;-81
2021/08/15 10:11:15;;;;;;;12.60;8.02;;;26.70;99.90;;;;;;6178894;23;20032;-81
2021/08/15 10:13:42;;;;;;;13.93;9.18;;;26.70;99.90;;;;;;6192604;23;20456;-81
2021/08/15 10:16:13;;;;;;;13.63;9.40;;;26.80;99.90;;;;;;6187304;23;20021;-80
2021/08/15 10:18:51;;;;;;;9.82;8.10;;;27.00;99.90;;;;;;6155681;23;20024;-82
2021/08/15 10:21:21;;;;;;;10.15;9.10;;;27.30;99.90;;;;;;6155716;23;20032;-81
2021/08/15 10:23:49;;;;;;;13.20;8.63;;;27.50;99.90;;;;;;6106615;23;20036;-80
2021/08/15 10:26:26;;;;;;;13.40;9.15;;;27.60;99.90;;;;;;6166762;23;20017;-80
2021/08/15 10:28:55;;;;;;;19.85;8.95;;;27.70;99.90;;;;;;6181589;23;20025;-81
2021/08/15 10:31:23;;;;;;;20.13;9.82;;;27.70;99.90;;;;;;6190074;23;20070;-81
2021/08/15 10:33:56;;;;;;;28.88;9.90;;;27.70;99.90;;;;;;6131004;23;20025;-80
2021/08/15 10:36:25;;;;;;;15.80;8.50;;;27.70;99.90;;;;;;6185978;23;20032;-81
2021/08/15 10:38:56;;;;;;;16.98;8.48;;;27.70;99.90;;;;;;6141697;23;20031;-81
2021/08/15 10:41:48;;;;;;;32.95;11.02;;;27.80;99.90;;;;;;6155121;23;20028;-85
2021/08/15 10:44:17;;;;;;;11.90;7.10;;;28.00;99.90;;;;;;6185898;23;20036;-81
2021/08/15 10:47:09;;;;;;;20.15;9.98;;;28.10;99.90;;;;;;6192213;23;20020;-81
2021/08/15 10:50:01;;;;;;;14.05;8.85;;;28.10;99.90;;;;;;6140315;23;20036;-81
2021/08/15 10:52:38;;;;;;;10.95;9.55;;;28.20;99.90;;;;;;6159333;23;20029;-81
2021/08/15 10:55:18;;;;;;;12.70;8.10;;;28.20;99.90;;;;;;6191895;23;20013;-86
2021/08/15 10:57:50;;;;;;;12.68;9.00;;;28.20;99.90;;;;;;6182037;23;20024;-87
2021/08/15 11:00:29;;;;;;;11.63;8.13;;;28.40;99.90;;;;;;6130993;23;20029;-88
2021/08/15 11:03:23;;;;;;;14.00;10.13;;;28.30;99.90;;;;;;6167529;23;20017;-88
2021/08/15 11:05:51;;;;;;;13.65;9.65;;;28.20;99.90;;;;;;6133030;23;20453;-81
2021/08/15 11:08:34;;;;;;;31.50;9.55;;;27.90;99.90;;;;;;6160627;23;20028;-81
2021/08/15 11:11:07;;;;;;;12.57;8.48;;;27.80;99.90;;;;;;6191945;23;20009;-81
2021/08/15 11:13:37;;;;;;;15.65;8.13;;;27.80;99.90;;;;;;6192796;23;20009;-81
2021/08/15 11:16:26;;;;;;;14.10;8.50;;;27.80;99.90;;;;;;6154436;23;20025;-81
2021/08/15 11:19:12;;;;;;;29.20;9.17;;;27.80;99.90;;;;;;6155318;23;20032;-81
2021/08/15 11:22:24;;;;;;;13.73;7.63;;;27.50;99.90;;;;;;6139621;23;20021;-81
2021/08/15 11:24:56;;;;;;;12.55;7.18;;;27.50;99.90;;;;;;6158582;23;20021;-81
2021/08/15 11:27:40;;;;;;;13.90;7.88;;;27.60;99.90;;;;;;6189878;23;20017;-81
2021/08/15 11:30:13;;;;;;;7.18;6.47;;;27.90;99.90;;;;;;6192764;23;20013;-81
2021/08/15 11:32:52;;;;;;;18.83;10.18;;;28.10;99.90;;;;;;6185076;23;20029;-81
2021/08/15 11:35:20;;;;;;;10.40;7.60;;;28.10;99.90;;;;;;6154630;23;20021;-80
2021/08/15 11:37:53;;;;;;;8.35;6.53;;;28.20;99.90;;;;;;6131591;23;20032;-81
2021/08/15 11:40:26;;;;;;;9.70;7.32;;;28.20;99.90;;;;;;6154315;23;20021;-82
2021/08/15 11:43:00;;;;;;;18.60;8.02;;;28.40;99.90;;;;;;6192681;23;20017;-81
2021/08/15 11:45:36;;;;;;;12.10;6.85;;;28.30;99.90;;;;;;6131004;23;20029;-81
2021/08/15 11:48:10;;;;;;;13.43;7.05;;;28.20;99.90;;;;;;6185138;23;20032;-81
2021/08/15 11:50:41;;;;;;;12.25;7.45;;;28.30;99.90;;;;;;6191732;23;20507;-81
2021/08/15 11:53:27;;;;;;;9.23;6.90;;;28.30;99.90;;;;;;6182745;23;20021;-81
2021/08/15 11:55:57;;;;;;;10.07;7.18;;;27.90;99.90;;;;;;6187989;23;20033;-81
2021/08/15 11:58:25;;;;;;;11.68;8.10;;;27.80;99.90;;;;;;6134486;23;20018;-81
2021/08/15 12:00:54;;;;;;;15.48;8.82;;;28.00;99.90;;;;;;6124423;23;20033;-81
2021/08/15 12:03:23;;;;;;;8.57;7.60;;;28.10;99.90;;;;;;6096524;23;20033;-81
2021/08/15 12:05:57;;;;;;;12.93;8.67;;;28.30;99.90;;;;;;6131238;23;20021;-81
2021/08/15 12:08:42;;;;;;;12.95;7.72;;;28.40;99.90;;;;;;6126745;23;20030;-81
2021/08/15 12:11:30;;;;;;;14.88;8.07;;;28.50;99.90;;;;;;6131797;23;20021;-81
2021/08/15 12:14:07;;;;;;;10.00;8.40;;;28.60;99.90;;;;;;6132366;23;20014;-81
2021/08/15 12:16:37;;;;;;;9.70;7.38;;;28.70;99.90;;;;;;6120787;23;20029;-81
2021/08/15 12:19:06;;;;;;;15.80;7.32;;;28.70;99.90;;;;;;6095858;23;20022;-81
2021/08/15 12:21:37;;;;;;;10.88;7.10;;;28.70;99.90;;;;;;6131762;23;20018;-81
2021/08/15 12:24:22;;;;;;;10.88;7.38;;;28.60;99.90;;;;;;6150118;23;20449;-82
2021/08/15 12:26:58;;;;;;;12.57;7.25;;;28.50;99.90;;;;;;6096692;23;20099;-82
2021/08/15 12:29:26;;;;;;;11.48;7.90;;;28.50;99.90;;;;;;6118854;23;20342;-81
2021/08/15 12:32:07;;;;;;;16.02;7.18;;;28.70;99.90;;;;;;6119434;23;20026;-81
2021/08/15 12:34:42;;;;;;;8.88;6.63;;;28.80;99.90;;;;;;6097464;23;20022;-81
2021/08/15 12:37:18;;;;;;;8.48;7.20;;;28.90;99.90;;;;;;6119997;23;20026;-82
2021/08/15 12:40:02;;;;;;;10.23;7.30;;;28.90;99.90;;;;;;6143936;23;20339;-81
2021/08/15 12:42:32;;;;;;;11.55;7.00;;;29.00;99.90;;;;;;6155274;23;20024;-82
2021/08/15 12:45:05;;;;;;;17.70;7.85;;;29.10;99.90;;;;;;6124231;23;20034;-82
2021/08/15 12:47:36;;;;;;;11.05;7.35;;;29.20;99.90;;;;;;6128136;23;20026;-81
2021/08/15 12:50:17;;;;;;;8.98;7.80;;;29.20;99.90;;;;;;6132482;23;20014;-81
2021/08/15 12:52:47;;;;;;;11.35;7.60;;;29.20;99.90;;;;;;6124143;23;20033;-81
2021/08/15 12:55:18;;;;;;;8.88;8.00;;;29.10;99.90;;;;;;6120593;23;20022;-81
2021/08/15 12:57:54;;;;;;;17.08;7.10;;;29.10;99.90;;;;;;6126624;23;20033;-81